createdAt,value
2023-05-18T00:00:00.009Z,101096.55
2023-05-18T00:15:03.060Z,101103.64
2023-05-18T00:30:06.612Z,101104.86
2023-05-18T00:45:10.004Z,101130.59
2023-05-18T01:00:14.125Z,101141.30
2023-05-18T01:15:20.000Z,101145.04
2023-05-18T01:30:23.694Z,101161.32
2023-05-18T01:45:30.262Z,101169.79
2023-05-18T02:00:33.518Z,101177.83
2023-05-18T02:15:36.269Z,101181.94
2023-05-18T02:30:38.870Z,101194.61
2023-05-18T02:45:41.520Z,101195.45
2023-05-18T03:00:44.483Z,101203.27
2023-05-18T03:15:47.996Z,101210.44
2023-05-18T03:30:50.698Z,101224.69
2023-05-18T03:45:53.693Z,101228.05
2023-05-18T04:00:56.627Z,101232.48
2023-05-18T04:15:59.932Z,101249.02
2023-05-18T04:31:02.667Z,101264.13
2023-05-18T04:46:07.309Z,101276.97
2023-05-18T05:01:10.312Z,101279.83
2023-05-18T05:16:13.137Z,101288.71
2023-05-18T05:31:15.939Z,101297.41
2023-05-18T05:46:19.186Z,101305.19
2023-05-18T06:01:22.198Z,101305.27
2023-05-18T06:16:25.549Z,101309.67
2023-05-18T06:31:30.313Z,101314.38
2023-05-18T06:46:33.479Z,101325.44
2023-05-18T07:01:36.953Z,101321.64
2023-05-18T07:16:40.197Z,101326.45
2023-05-18T07:31:43.099Z,101331.94
2023-05-18T07:46:45.889Z,101335.88
2023-05-18T08:01:49.397Z,101339.14
2023-05-18T08:16:52.170Z,101331.08
2023-05-18T08:31:55.104Z,101333.00
2023-05-18T08:46:58.826Z,101331.84
2023-05-18T09:02:01.875Z,101334.32
2023-05-18T09:17:05.041Z,101330.67
2023-05-18T09:32:10.950Z,101320.67
2023-05-18T09:47:13.590Z,101322.89
2023-05-18T10:02:19.449Z,101312.16
2023-05-18T10:17:25.744Z,101307.61
2023-05-18T10:32:30.116Z,101302.77
2023-05-18T10:47:36.034Z,101294.66
2023-05-18T11:02:42.727Z,101285.54
2023-05-18T11:17:46.066Z,101284.44
2023-05-18T11:32:52.586Z,101282.77
2023-05-18T11:48:01.514Z,101276.32
2023-05-18T12:03:06.515Z,101274.42
2023-05-18T12:18:10.985Z,101275.80
2023-05-18T12:33:13.829Z,101267.91
2023-05-18T12:48:18.003Z,101255.92
2023-05-18T13:03:22.927Z,101243.96
2023-05-18T13:18:29.439Z,101233.11
2023-05-18T13:33:34.992Z,101235.63
2023-05-18T13:48:41.183Z,101234.89
2023-05-18T14:19:05.811Z,101196.45
2023-05-18T14:34:10.501Z,101185.51
2023-05-18T14:49:18.858Z,101186.17
2023-05-18T15:04:23.663Z,101183.35
2023-05-18T15:19:26.460Z,101186.88
2023-05-18T15:34:29.796Z,101190.54
2023-05-18T15:49:32.684Z,101185.71
2023-05-18T16:04:35.722Z,101184.00
2023-05-18T16:19:38.352Z,101185.66
2023-05-18T16:34:41.294Z,101183.73
2023-05-18T16:49:45.591Z,101181.20
2023-05-18T17:04:51.046Z,101194.19
2023-05-18T17:19:54.588Z,101192.92
2023-05-18T17:34:58.569Z,101196.35
2023-05-18T17:50:01.427Z,101201.96
2023-05-18T18:05:04.379Z,101203.36
2023-05-18T18:20:08.048Z,101206.69
2023-05-18T18:35:10.943Z,101212.34
2023-05-18T18:50:13.696Z,101215.85
2023-05-18T19:05:21.614Z,101238.50
2023-05-18T19:20:24.506Z,101250.20
2023-05-18T19:35:27.236Z,101251.36
2023-05-18T19:50:30.104Z,101264.29
2023-05-18T20:05:33.486Z,101265.85
2023-05-18T20:20:36.319Z,101278.46
2023-05-18T20:35:40.927Z,101292.02
2023-05-18T20:50:44.236Z,101297.79
2023-05-18T21:05:49.624Z,101305.70
2023-05-18T21:20:54.906Z,101308.77
2023-05-18T21:35:59.267Z,101312.31
2023-05-18T21:51:03.888Z,101312.67
2023-05-18T22:06:06.719Z,101325.83
2023-05-18T22:21:09.311Z,101326.53
2023-05-18T22:36:11.884Z,101327.71
2023-05-18T22:51:15.661Z,101321.17
2023-05-18T23:06:22.091Z,101316.23
2023-05-18T23:21:24.756Z,101317.63
2023-05-18T23:36:35.052Z,101308.67
2023-05-18T23:51:38.940Z,101300.17
